sensor_id;sensor_type;location;lat;lon;timestamp;temperature;humidity
27314;DHT22;14800;48.174;9.798;2024-01-06T00:00:34;8.20;88.10
27314;DHT22;14800;48.174;9.798;2024-01-06T00:03:00;8.30;88.20
27314;DHT22;14800;48.174;9.798;2024-01-06T00:05:26;8.20;88.20
27314;DHT22;14800;48.174;9.798;2024-01-06T00:07:51;8.20;88.30
27314;DHT22;14800;48.174;9.798;2024-01-06T00:10:17;8.20;88.30
27314;DHT22;14800;48.174;9.798;2024-01-06T00:12:43;8.10;88.40
27314;DHT22;14800;48.174;9.798;2024-01-06T00:15:08;8.10;88.50
27314;DHT22;14800;48.174;9.798;2024-01-06T00:17:34;8.10;88.60
27314;DHT22;14800;48.174;9.798;2024-01-06T00:19:59;8.10;88.80
27314;DHT22;14800;48.174;9.798;2024-01-06T00:22:27;8.00;88.80
27314;DHT22;14800;48.174;9.798;2024-01-06T00:24:53;8.00;88.80
27314;DHT22;14800;48.174;9.798;2024-01-06T00:27:18;8.00;88.90
27314;DHT22;14800;48.174;9.798;2024-01-06T00:29:44;8.00;89.00
27314;DHT22;14800;48.174;9.798;2024-01-06T00:32:10;7.90;89.10
27314;DHT22;14800;48.174;9.798;2024-01-06T00:34:35;7.90;89.90
27314;DHT22;14800;48.174;9.798;2024-01-06T00:37:01;7.90;89.20
27314;DHT22;14800;48.174;9.798;2024-01-06T00:39:26;7.90;89.30
27314;DHT22;14800;48.174;9.798;2024-01-06T00:41:52;7.80;89.30
27314;DHT22;14800;48.174;9.798;2024-01-06T00:44:17;7.80;89.50
27314;DHT22;14800;48.174;9.798;2024-01-06T00:46:43;7.80;89.50
27314;DHT22;14800;48.174;9.798;2024-01-06T00:49:08;7.80;89.60
27314;DHT22;14800;48.174;9.798;2024-01-06T00:51:34;7.80;89.70
27314;DHT22;14800;48.174;9.798;2024-01-06T00:54:00;7.70;89.90
27314;DHT22;14800;48.174;9.798;2024-01-06T00:56:25;7.70;89.90
27314;DHT22;14800;48.174;9.798;2024-01-06T00:58:52;7.70;89.90
27314;DHT22;14800;48.174;9.798;2024-01-06T01:01:18;7.70;90.00
27314;DHT22;14800;48.174;9.798;2024-01-06T01:03:43;7.60;90.00
27314;DHT22;14800;48.174;9.798;2024-01-06T01:06:09;7.60;90.00
27314;DHT22;14800;48.174;9.798;2024-01-06T01:08:35;7.60;90.10
27314;DHT22;14800;48.174;9.798;2024-01-06T01:11:00;7.60;90.10
27314;DHT22;14800;48.174;9.798;2024-01-06T01:13:26;7.50;90.20
27314;DHT22;14800;48.174;9.798;2024-01-06T01:15:51;7.50;90.20
27314;DHT22;14800;48.174;9.798;2024-01-06T01:18:17;7.50;90.30
27314;DHT22;14800;48.174;9.798;2024-01-06T01:20:42;7.50;90.30
27314;DHT22;14800;48.174;9.798;2024-01-06T01:23:08;7.50;90.30
27314;DHT22;14800;48.174;9.798;2024-01-06T01:25:34;7.50;90.40
27314;DHT22;14800;48.174;9.798;2024-01-06T01:27:59;7.50;90.40
27314;DHT22;14800;48.174;9.798;2024-01-06T01:30:25;7.50;90.40
27314;DHT22;14800;48.174;9.798;2024-01-06T01:32:51;7.40;90.30
27314;DHT22;14800;48.174;9.798;2024-01-06T01:35:16;7.40;90.30
27314;DHT22;14800;48.174;9.798;2024-01-06T01:37:42;7.40;90.30
27314;DHT22;14800;48.174;9.798;2024-01-06T01:40:08;7.40;90.30
27314;DHT22;14800;48.174;9.798;2024-01-06T01:42:33;7.30;90.20
27314;DHT22;14800;48.174;9.798;2024-01-06T01:44:59;7.30;90.20
27314;DHT22;14800;48.174;9.798;2024-01-06T01:47:25;7.30;90.20
27314;DHT22;14800;48.174;9.798;2024-01-06T01:49:55;7.30;90.20
27314;DHT22;14800;48.174;9.798;2024-01-06T01:52:21;7.30;90.20
27314;DHT22;14800;48.174;9.798;2024-01-06T01:54:47;7.20;90.20
27314;DHT22;14800;48.174;9.798;2024-01-06T01:57:14;7.20;90.20
27314;DHT22;14800;48.174;9.798;2024-01-06T01:59:41;7.20;90.20
27314;DHT22;14800;48.174;9.798;2024-01-06T02:02:08;7.20;90.20
27314;DHT22;14800;48.174;9.798;2024-01-06T02:04:33;7.20;90.10
27314;DHT22;14800;48.174;9.798;2024-01-06T02:07:01;7.20;90.10
27314;DHT22;14800;48.174;9.798;2024-01-06T02:09:27;7.20;90.00
27314;DHT22;14800;48.174;9.798;2024-01-06T02:11:58;7.20;90.40
27314;DHT22;14800;48.174;9.798;2024-01-06T02:14:24;7.20;90.00
27314;DHT22;14800;48.174;9.798;2024-01-06T02:16:52;7.20;90.00
27314;DHT22;14800;48.174;9.798;2024-01-06T02:19:18;7.20;90.00
27314;DHT22;14800;48.174;9.798;2024-01-06T02:21:47;7.20;90.00
27314;DHT22;14800;48.174;9.798;2024-01-06T02:24:13;7.30;90.00
27314;DHT22;14800;48.174;9.798;2024-01-06T02:26:39;7.20;89.70
27314;DHT22;14800;48.174;9.798;2024-01-06T02:29:04;7.30;89.60
27314;DHT22;14800;48.174;9.798;2024-01-06T02:31:30;7.30;89.50
27314;DHT22;14800;48.174;9.798;2024-01-06T02:33:55;7.30;89.50
27314;DHT22;14800;48.174;9.798;2024-01-06T02:36:21;7.20;89.50
27314;DHT22;14800;48.174;9.798;2024-01-06T02:38:46;7.20;89.50
27314;DHT22;14800;48.174;9.798;2024-01-06T02:41:12;7.20;89.50
27314;DHT22;14800;48.174;9.798;2024-01-06T02:43:37;7.10;89.40
27314;DHT22;14800;48.174;9.798;2024-01-06T02:46:03;7.20;89.50
27314;DHT22;14800;48.174;9.798;2024-01-06T02:48:28;7.10;89.50
27314;DHT22;14800;48.174;9.798;2024-01-06T02:50:56;7.10;89.20
27314;DHT22;14800;48.174;9.798;2024-01-06T02:53:21;7.10;88.70
27314;DHT22;14800;48.174;9.798;2024-01-06T02:55:47;7.00;88.60
27314;DHT22;14800;48.174;9.798;2024-01-06T02:58:13;7.00;88.60
27314;DHT22;14800;48.174;9.798;2024-01-06T03:00:38;6.90;89.50
27314;DHT22;14800;48.174;9.798;2024-01-06T03:03:04;6.90;88.60
27314;DHT22;14800;48.174;9.798;2024-01-06T03:05:29;6.90;88.50
27314;DHT22;14800;48.174;9.798;2024-01-06T03:07:55;6.90;88.50
27314;DHT22;14800;48.174;9.798;2024-01-06T03:10:21;6.90;88.60
27314;DHT22;14800;48.174;9.798;2024-01-06T03:12:46;6.90;88.60
27314;DHT22;14800;48.174;9.798;2024-01-06T03:15:12;6.80;88.70
27314;DHT22;14800;48.174;9.798;2024-01-06T03:17:37;6.80;88.90
27314;DHT22;14800;48.174;9.798;2024-01-06T03:20:03;6.90;88.80
27314;DHT22;14800;48.174;9.798;2024-01-06T03:22:29;6.90;88.70
27314;DHT22;14800;48.174;9.798;2024-01-06T03:24:55;6.90;88.70
27314;DHT22;14800;48.174;9.798;2024-01-06T03:27:21;6.90;88.80
27314;DHT22;14800;48.174;9.798;2024-01-06T03:29:46;6.80;88.80
27314;DHT22;14800;48.174;9.798;2024-01-06T03:32:12;6.80;88.90
27314;DHT22;14800;48.174;9.798;2024-01-06T03:34:37;6.90;89.00
27314;DHT22;14800;48.174;9.798;2024-01-06T03:37:03;6.90;89.90
27314;DHT22;14800;48.174;9.798;2024-01-06T03:39:29;6.90;89.10
27314;DHT22;14800;48.174;9.798;2024-01-06T03:41:54;6.80;88.90
27314;DHT22;14800;48.174;9.798;2024-01-06T03:44:20;6.80;88.60
27314;DHT22;14800;48.174;9.798;2024-01-06T03:46:45;6.70;88.40
27314;DHT22;14800;48.174;9.798;2024-01-06T03:49:11;6.70;88.60
27314;DHT22;14800;48.174;9.798;2024-01-06T03:51:36;6.70;88.80
27314;DHT22;14800;48.174;9.798;2024-01-06T03:54:02;6.60;88.70
27314;DHT22;14800;48.174;9.798;2024-01-06T03:56:28;6.60;88.40
27314;DHT22;14800;48.174;9.798;2024-01-06T03:58:53;6.50;88.20
27314;DHT22;14800;48.174;9.798;2024-01-06T04:01:20;6.50;88.50
27314;DHT22;14800;48.174;9.798;2024-01-06T04:03:45;6.50;88.70
27314;DHT22;14800;48.174;9.798;2024-01-06T04:06:11;6.40;88.80
27314;DHT22;14800;48.174;9.798;2024-01-06T04:08:36;6.40;89.00
27314;DHT22;14800;48.174;9.798;2024-01-06T04:11:02;6.50;89.30
27314;DHT22;14800;48.174;9.798;2024-01-06T04:13:28;6.50;89.40
27314;DHT22;14800;48.174;9.798;2024-01-06T04:15:53;6.50;89.50
27314;DHT22;14800;48.174;9.798;2024-01-06T04:18:19;6.60;89.50
27314;DHT22;14800;48.174;9.798;2024-01-06T04:20:45;6.60;89.30
27314;DHT22;14800;48.174;9.798;2024-01-06T04:23:10;6.60;89.30
27314;DHT22;14800;48.174;9.798;2024-01-06T04:25:36;6.60;89.30
27314;DHT22;14800;48.174;9.798;2024-01-06T04:28:01;6.70;89.50
27314;DHT22;14800;48.174;9.798;2024-01-06T04:30:27;6.70;89.60
27314;DHT22;14800;48.174;9.798;2024-01-06T04:32:52;6.70;89.50
27314;DHT22;14800;48.174;9.798;2024-01-06T04:35:20;6.70;89.50
27314;DHT22;14800;48.174;9.798;2024-01-06T04:37:46;6.80;89.50
27314;DHT22;14800;48.174;9.798;2024-01-06T04:40:12;6.80;89.40
27314;DHT22;14800;48.174;9.798;2024-01-06T04:42:38;6.80;89.30
27314;DHT22;14800;48.174;9.798;2024-01-06T04:45:04;6.90;89.30
27314;DHT22;14800;48.174;9.798;2024-01-06T04:47:30;6.90;89.30
27314;DHT22;14800;48.174;9.798;2024-01-06T04:49:56;6.90;89.20
27314;DHT22;14800;48.174;9.798;2024-01-06T04:52:22;7.00;89.10
27314;DHT22;14800;48.174;9.798;2024-01-06T04:54:48;7.00;89.00
27314;DHT22;14800;48.174;9.798;2024-01-06T04:57:13;7.00;89.00
27314;DHT22;14800;48.174;9.798;2024-01-06T04:59:39;7.00;88.90
27314;DHT22;14800;48.174;9.798;2024-01-06T05:02:05;7.00;88.80
27314;DHT22;14800;48.174;9.798;2024-01-06T05:04:31;7.00;88.80
27314;DHT22;14800;48.174;9.798;2024-01-06T05:06:58;7.00;89.50
27314;DHT22;14800;48.174;9.798;2024-01-06T05:09:24;7.00;89.00
27314;DHT22;14800;48.174;9.798;2024-01-06T05:11:50;7.00;88.80
27314;DHT22;14800;48.174;9.798;2024-01-06T05:14:15;7.00;88.80
27314;DHT22;14800;48.174;9.798;2024-01-06T05:16:41;7.00;88.80
27314;DHT22;14800;48.174;9.798;2024-01-06T05:19:07;7.00;88.60
27314;DHT22;14800;48.174;9.798;2024-01-06T05:21:33;7.00;88.60
27314;DHT22;14800;48.174;9.798;2024-01-06T05:23:59;7.00;88.60
27314;DHT22;14800;48.174;9.798;2024-01-06T05:26:25;7.10;88.60
27314;DHT22;14800;48.174;9.798;2024-01-06T05:28:51;7.10;88.60
27314;DHT22;14800;48.174;9.798;2024-01-06T05:31:16;7.00;88.50
27314;DHT22;14800;48.174;9.798;2024-01-06T05:33:42;7.00;88.50
27314;DHT22;14800;48.174;9.798;2024-01-06T05:36:08;7.00;88.50
27314;DHT22;14800;48.174;9.798;2024-01-06T05:38:33;7.10;88.60
27314;DHT22;14800;48.174;9.798;2024-01-06T05:40:59;7.10;88.50
27314;DHT22;14800;48.174;9.798;2024-01-06T05:43:25;7.10;88.50
27314;DHT22;14800;48.174;9.798;2024-01-06T05:45:51;7.10;88.40
27314;DHT22;14800;48.174;9.798;2024-01-06T05:48:16;7.10;88.40
27314;DHT22;14800;48.174;9.798;2024-01-06T05:50:42;7.10;89.20
27314;DHT22;14800;48.174;9.798;2024-01-06T05:53:08;7.00;88.30
27314;DHT22;14800;48.174;9.798;2024-01-06T05:55:34;7.00;88.30
27314;DHT22;14800;48.174;9.798;2024-01-06T05:58:00;7.00;88.30
27314;DHT22;14800;48.174;9.798;2024-01-06T06:00:26;7.00;88.30
27314;DHT22;14800;48.174;9.798;2024-01-06T06:02:52;7.00;88.40
27314;DHT22;14800;48.174;9.798;2024-01-06T06:05:17;6.90;88.40
27314;DHT22;14800;48.174;9.798;2024-01-06T06:07:43;6.90;88.50
27314;DHT22;14800;48.174;9.798;2024-01-06T06:10:10;6.90;88.50
27314;DHT22;14800;48.174;9.798;2024-01-06T06:12:36;6.90;88.60
27314;DHT22;14800;48.174;9.798;2024-01-06T06:15:02;6.90;88.60
27314;DHT22;14800;48.174;9.798;2024-01-06T06:17:30;6.90;88.60
27314;DHT22;14800;48.174;9.798;2024-01-06T06:19:56;6.90;88.50
27314;DHT22;14800;48.174;9.798;2024-01-06T06:22:22;6.90;88.50
27314;DHT22;14800;48.174;9.798;2024-01-06T06:24:48;6.90;88.60
27314;DHT22;14800;48.174;9.798;2024-01-06T06:27:14;6.90;88.60
27314;DHT22;14800;48.174;9.798;2024-01-06T06:29:39;6.90;88.60
27314;DHT22;14800;48.174;9.798;2024-01-06T06:32:05;6.90;88.60
27314;DHT22;14800;48.174;9.798;2024-01-06T06:34:31;6.80;88.60
27314;DHT22;14800;48.174;9.798;2024-01-06T06:36:56;6.90;88.80
27314;DHT22;14800;48.174;9.798;2024-01-06T06:39:22;6.80;88.70
27314;DHT22;14800;48.174;9.798;2024-01-06T06:41:47;6.90;88.80
27314;DHT22;14800;48.174;9.798;2024-01-06T06:44:13;6.80;88.80
27314;DHT22;14800;48.174;9.798;2024-01-06T06:46:38;6.90;88.90
27314;DHT22;14800;48.174;9.798;2024-01-06T06:49:04;6.90;88.90
27314;DHT22;14800;48.174;9.798;2024-01-06T06:51:30;6.90;89.70
27314;DHT22;14800;48.174;9.798;2024-01-06T06:53:56;6.90;89.70
27314;DHT22;14800;48.174;9.798;2024-01-06T06:56:22;6.90;88.90
27314;DHT22;14800;48.174;9.798;2024-01-06T06:58:47;6.90;88.80
27314;DHT22;14800;48.174;9.798;2024-01-06T07:01:21;6.90;88.80
27314;DHT22;14800;48.174;9.798;2024-01-06T07:03:46;6.90;88.80
27314;DHT22;14800;48.174;9.798;2024-01-06T07:06:13;6.90;88.80
27314;DHT22;14800;48.174;9.798;2024-01-06T07:08:39;6.90;88.80
27314;DHT22;14800;48.174;9.798;2024-01-06T07:11:04;6.90;88.80
27314;DHT22;14800;48.174;9.798;2024-01-06T07:13:30;6.90;88.80
27314;DHT22;14800;48.174;9.798;2024-01-06T07:15:55;6.90;88.80
27314;DHT22;14800;48.174;9.798;2024-01-06T07:18:21;6.90;88.80
27314;DHT22;14800;48.174;9.798;2024-01-06T07:20:48;6.90;88.70
27314;DHT22;14800;48.174;9.798;2024-01-06T07:23:14;6.90;88.60
27314;DHT22;14800;48.174;9.798;2024-01-06T07:25:40;6.90;88.60
27314;DHT22;14800;48.174;9.798;2024-01-06T07:28:05;6.90;88.60
27314;DHT22;14800;48.174;9.798;2024-01-06T07:30:31;6.80;88.60
27314;DHT22;14800;48.174;9.798;2024-01-06T07:32:57;6.80;88.60
27314;DHT22;14800;48.174;9.798;2024-01-06T07:35:22;6.80;88.60
27314;DHT22;14800;48.174;9.798;2024-01-06T07:37:48;6.80;88.80
27314;DHT22;14800;48.174;9.798;2024-01-06T07:40:13;6.80;88.80
27314;DHT22;14800;48.174;9.798;2024-01-06T07:42:42;6.80;89.00
27314;DHT22;14800;48.174;9.798;2024-01-06T07:45:08;6.80;89.10
27314;DHT22;14800;48.174;9.798;2024-01-06T07:47:33;6.80;89.00
27314;DHT22;14800;48.174;9.798;2024-01-06T07:49:59;6.80;89.10
27314;DHT22;14800;48.174;9.798;2024-01-06T07:52:25;6.70;89.10
27314;DHT22;14800;48.174;9.798;2024-01-06T07:54:50;6.80;89.20
27314;DHT22;14800;48.174;9.798;2024-01-06T07:57:16;6.80;89.00
27314;DHT22;14800;48.174;9.798;2024-01-06T07:59:41;6.80;88.90
27314;DHT22;14800;48.174;9.798;2024-01-06T08:02:07;6.80;88.80
27314;DHT22;14800;48.174;9.798;2024-01-06T08:04:32;6.70;88.80
27314;DHT22;14800;48.174;9.798;2024-01-06T08:06:58;6.70;88.80
27314;DHT22;14800;48.174;9.798;2024-01-06T08:09:24;6.70;88.90
27314;DHT22;14800;48.174;9.798;2024-01-06T08:11:49;6.70;89.00
27314;DHT22;14800;48.174;9.798;2024-01-06T08:14:15;6.70;89.10
27314;DHT22;14800;48.174;9.798;2024-01-06T08:16:43;6.60;89.10
27314;DHT22;14800;48.174;9.798;2024-01-06T08:19:09;6.60;89.20
27314;DHT22;14800;48.174;9.798;2024-01-06T08:21:34;6.70;89.30
27314;DHT22;14800;48.174;9.798;2024-01-06T08:24:00;6.60;89.30
27314;DHT22;14800;48.174;9.798;2024-01-06T08:26:26;6.60;89.30
27314;DHT22;14800;48.174;9.798;2024-01-06T08:28:52;6.70;89.30
27314;DHT22;14800;48.174;9.798;2024-01-06T08:31:18;6.70;89.30
27314;DHT22;14800;48.174;9.798;2024-01-06T08:33:43;6.70;89.30
27314;DHT22;14800;48.174;9.798;2024-01-06T08:36:09;6.70;89.20
27314;DHT22;14800;48.174;9.798;2024-01-06T08:38:35;6.70;89.30
27314;DHT22;14800;48.174;9.798;2024-01-06T08:41:01;6.70;89.30
27314;DHT22;14800;48.174;9.798;2024-01-06T08:43:27;6.70;89.20
27314;DHT22;14800;48.174;9.798;2024-01-06T08:45:53;6.70;89.20
27314;DHT22;14800;48.174;9.798;2024-01-06T08:48:18;6.70;89.30
27314;DHT22;14800;48.174;9.798;2024-01-06T08:50:44;6.70;89.40
27314;DHT22;14800;48.174;9.798;2024-01-06T08:53:13;6.80;89.30
27314;DHT22;14800;48.174;9.798;2024-01-06T08:55:38;6.70;89.30
27314;DHT22;14800;48.174;9.798;2024-01-06T08:58:04;6.80;89.40
27314;DHT22;14800;48.174;9.798;2024-01-06T09:00:31;6.70;89.40
27314;DHT22;14800;48.174;9.798;2024-01-06T09:02:56;6.70;89.30
27314;DHT22;14800;48.174;9.798;2024-01-06T09:05:22;6.70;89.30
27314;DHT22;14800;48.174;9.798;2024-01-06T09:07:47;6.70;89.40
27314;DHT22;14800;48.174;9.798;2024-01-06T09:10:16;6.70;89.50
27314;DHT22;14800;48.174;9.798;2024-01-06T09:12:42;6.70;89.60
27314;DHT22;14800;48.174;9.798;2024-01-06T09:15:08;6.70;89.70
27314;DHT22;14800;48.174;9.798;2024-01-06T09:17:34;6.60;89.60
27314;DHT22;14800;48.174;9.798;2024-01-06T09:20:00;6.70;89.90
27314;DHT22;14800;48.174;9.798;2024-01-06T09:22:26;6.60;89.80
27314;DHT22;14800;48.174;9.798;2024-01-06T09:24:52;6.60;89.90
27314;DHT22;14800;48.174;9.798;2024-01-06T09:27:18;6.60;89.70
27314;DHT22;14800;48.174;9.798;2024-01-06T09:29:44;6.60;89.70
27314;DHT22;14800;48.174;9.798;2024-01-06T09:32:10;6.60;89.80
27314;DHT22;14800;48.174;9.798;2024-01-06T09:34:35;6.60;89.80
27314;DHT22;14800;48.174;9.798;2024-01-06T09:37:01;6.60;89.80
27314;DHT22;14800;48.174;9.798;2024-01-06T09:39:26;6.50;89.80
27314;DHT22;14800;48.174;9.798;2024-01-06T09:41:52;6.60;90.00
27314;DHT22;14800;48.174;9.798;2024-01-06T09:44:18;6.50;90.00
27314;DHT22;14800;48.174;9.798;2024-01-06T09:46:44;6.50;90.00
27314;DHT22;14800;48.174;9.798;2024-01-06T09:49:10;6.50;90.00
27314;DHT22;14800;48.174;9.798;2024-01-06T09:51:37;6.50;90.00
27314;DHT22;14800;48.174;9.798;2024-01-06T09:54:07;6.60;90.00
27314;DHT22;14800;48.174;9.798;2024-01-06T09:56:33;6.60;90.00
27314;DHT22;14800;48.174;9.798;2024-01-06T09:58:59;6.60;90.00
27314;DHT22;14800;48.174;9.798;2024-01-06T10:01:25;6.60;90.10
27314;DHT22;14800;48.174;9.798;2024-01-06T10:03:51;6.60;90.00
27314;DHT22;14800;48.174;9.798;2024-01-06T10:06:17;6.70;90.10
27314;DHT22;14800;48.174;9.798;2024-01-06T10:08:44;6.70;90.10
27314;DHT22;14800;48.174;9.798;2024-01-06T10:11:09;6.70;90.10
27314;DHT22;14800;48.174;9.798;2024-01-06T10:13:36;6.80;90.10
27314;DHT22;14800;48.174;9.798;2024-01-06T10:16:04;6.80;90.10
27314;DHT22;14800;48.174;9.798;2024-01-06T10:18:31;6.80;90.10
27314;DHT22;14800;48.174;9.798;2024-01-06T10:20:57;6.80;90.00
27314;DHT22;14800;48.174;9.798;2024-01-06T10:23:23;6.80;90.00
27314;DHT22;14800;48.174;9.798;2024-01-06T10:25:55;6.90;90.10
27314;DHT22;14800;48.174;9.798;2024-01-06T10:28:21;6.90;90.10
27314;DHT22;14800;48.174;9.798;2024-01-06T10:30:53;6.90;90.40
27314;DHT22;14800;48.174;9.798;2024-01-06T10:33:23;6.90;90.10
27314;DHT22;14800;48.174;9.798;2024-01-06T10:35:50;6.90;90.00
27314;DHT22;14800;48.174;9.798;2024-01-06T10:38:15;6.90;90.00
27314;DHT22;14800;48.174;9.798;2024-01-06T10:41:00;6.90;89.90
27314;DHT22;14800;48.174;9.798;2024-01-06T10:43:33;6.90;90.10
27314;DHT22;14800;48.174;9.798;2024-01-06T10:46:03;7.00;90.00
27314;DHT22;14800;48.174;9.798;2024-01-06T10:48:34;7.00;89.90
27314;DHT22;14800;48.174;9.798;2024-01-06T10:51:00;7.00;89.90
27314;DHT22;14800;48.174;9.798;2024-01-06T10:53:27;7.00;89.80
27314;DHT22;14800;48.174;9.798;2024-01-06T10:55:53;7.00;90.00
27314;DHT22;14800;48.174;9.798;2024-01-06T10:58:19;6.90;89.90
27314;DHT22;14800;48.174;9.798;2024-01-06T11:00:45;7.00;90.00
27314;DHT22;14800;48.174;9.798;2024-01-06T11:03:13;6.90;90.00
27314;DHT22;14800;48.174;9.798;2024-01-06T11:05:41;7.00;89.90
27314;DHT22;14800;48.174;9.798;2024-01-06T11:08:08;7.00;89.70
27314;DHT22;14800;48.174;9.798;2024-01-06T11:10:34;7.00;90.20
27314;DHT22;14800;48.174;9.798;2024-01-06T11:13:11;7.00;89.70
27314;DHT22;14800;48.174;9.798;2024-01-06T11:15:44;7.00;89.90
27314;DHT22;14800;48.174;9.798;2024-01-06T11:18:37;7.00;89.90
27314;DHT22;14800;48.174;9.798;2024-01-06T11:21:22;7.00;90.00
27314;DHT22;14800;48.174;9.798;2024-01-06T11:24:15;7.00;89.90
27314;DHT22;14800;48.174;9.798;2024-01-06T11:26:50;7.00;89.90
27314;DHT22;14800;48.174;9.798;2024-01-06T11:29:17;7.10;89.80
27314;DHT22;14800;48.174;9.798;2024-01-06T11:31:42;7.10;89.80
27314;DHT22;14800;48.174;9.798;2024-01-06T11:34:18;7.10;89.80
27314;DHT22;14800;48.174;9.798;2024-01-06T11:36:45;7.10;89.70
27314;DHT22;14800;48.174;9.798;2024-01-06T11:39:36;7.10;89.50
27314;DHT22;14800;48.174;9.798;2024-01-06T11:42:03;7.10;89.80
27314;DHT22;14800;48.174;9.798;2024-01-06T11:44:33;7.10;89.50
27314;DHT22;14800;48.174;9.798;2024-01-06T11:46:59;7.10;89.50
27314;DHT22;14800;48.174;9.798;2024-01-06T11:49:27;7.10;89.40
27314;DHT22;14800;48.174;9.798;2024-01-06T11:51:56;7.10;89.40
27314;DHT22;14800;48.174;9.798;2024-01-06T11:54:22;7.10;89.40
27314;DHT22;14800;48.174;9.798;2024-01-06T11:56:48;7.10;89.30
27314;DHT22;14800;48.174;9.798;2024-01-06T11:59:14;7.10;89.20
27314;DHT22;14800;48.174;9.798;2024-01-06T12:01:39;7.10;89.10
27314;DHT22;14800;48.174;9.798;2024-01-06T12:04:06;7.20;89.00
27314;DHT22;14800;48.174;9.798;2024-01-06T12:06:32;7.20;89.00
27314;DHT22;14800;48.174;9.798;2024-01-06T12:09:11;7.20;89.20
27314;DHT22;14800;48.174;9.798;2024-01-06T12:11:40;7.20;90.00
27314;DHT22;14800;48.174;9.798;2024-01-06T12:14:06;7.20;89.20
27314;DHT22;14800;48.174;9.798;2024-01-06T12:16:32;7.20;89.00
27314;DHT22;14800;48.174;9.798;2024-01-06T12:18:59;7.20;88.90
27314;DHT22;14800;48.174;9.798;2024-01-06T12:21:26;7.20;89.00
27314;DHT22;14800;48.174;9.798;2024-01-06T12:23:52;7.20;89.10
27314;DHT22;14800;48.174;9.798;2024-01-06T12:26:18;7.30;89.20
27314;DHT22;14800;48.174;9.798;2024-01-06T12:28:48;7.30;89.10
27314;DHT22;14800;48.174;9.798;2024-01-06T12:31:14;7.40;89.00
27314;DHT22;14800;48.174;9.798;2024-01-06T12:33:40;7.40;89.10
27314;DHT22;14800;48.174;9.798;2024-01-06T12:36:09;7.40;89.00
27314;DHT22;14800;48.174;9.798;2024-01-06T12:38:36;7.40;88.80
27314;DHT22;14800;48.174;9.798;2024-01-06T12:41:03;7.40;88.60
27314;DHT22;14800;48.174;9.798;2024-01-06T12:43:29;7.50;88.50
27314;DHT22;14800;48.174;9.798;2024-01-06T12:45:55;7.50;88.60
27314;DHT22;14800;48.174;9.798;2024-01-06T12:48:22;7.50;88.50
27314;DHT22;14800;48.174;9.798;2024-01-06T12:50:48;7.50;88.50
27314;DHT22;14800;48.174;9.798;2024-01-06T12:53:13;7.50;88.50
27314;DHT22;14800;48.174;9.798;2024-01-06T12:55:41;7.60;88.50
27314;DHT22;14800;48.174;9.798;2024-01-06T12:58:06;7.60;88.30
27314;DHT22;14800;48.174;9.798;2024-01-06T13:00:33;7.60;88.30
27314;DHT22;14800;48.174;9.798;2024-01-06T13:02:59;7.60;88.20
27314;DHT22;14800;48.174;9.798;2024-01-06T13:05:24;7.60;88.30
27314;DHT22;14800;48.174;9.798;2024-01-06T13:07:50;7.60;88.30
27314;DHT22;14800;48.174;9.798;2024-01-06T13:10:16;7.60;88.30
27314;DHT22;14800;48.174;9.798;2024-01-06T13:12:42;7.70;88.50
27314;DHT22;14800;48.174;9.798;2024-01-06T13:15:08;7.70;88.50
27314;DHT22;14800;48.174;9.798;2024-01-06T13:17:37;7.70;88.40
27314;DHT22;14800;48.174;9.798;2024-01-06T13:20:04;7.80;88.40
27314;DHT22;14800;48.174;9.798;2024-01-06T13:22:30;7.80;88.00
27314;DHT22;14800;48.174;9.798;2024-01-06T13:24:56;7.80;87.30
27314;DHT22;14800;48.174;9.798;2024-01-06T13:27:22;7.80;87.40
27314;DHT22;14800;48.174;9.798;2024-01-06T13:29:47;7.80;87.40
27314;DHT22;14800;48.174;9.798;2024-01-06T13:32:13;7.80;87.30
27314;DHT22;14800;48.174;9.798;2024-01-06T13:34:40;7.80;86.90
27314;DHT22;14800;48.174;9.798;2024-01-06T13:37:07;7.80;86.90
27314;DHT22;14800;48.174;9.798;2024-01-06T13:39:33;7.80;86.70
27314;DHT22;14800;48.174;9.798;2024-01-06T13:41:58;7.80;86.20
27314;DHT22;14800;48.174;9.798;2024-01-06T13:44:24;7.80;85.30
27314;DHT22;14800;48.174;9.798;2024-01-06T13:46:50;7.70;85.40
27314;DHT22;14800;48.174;9.798;2024-01-06T13:49:17;7.70;85.60
27314;DHT22;14800;48.174;9.798;2024-01-06T13:51:43;7.70;85.90
27314;DHT22;14800;48.174;9.798;2024-01-06T13:54:09;7.60;85.50
27314;DHT22;14800;48.174;9.798;2024-01-06T13:56:35;7.60;85.60
27314;DHT22;14800;48.174;9.798;2024-01-06T13:59:02;7.60;85.40
27314;DHT22;14800;48.174;9.798;2024-01-06T14:01:28;7.50;85.20
27314;DHT22;14800;48.174;9.798;2024-01-06T14:03:54;7.50;84.90
27314;DHT22;14800;48.174;9.798;2024-01-06T14:06:26;7.50;84.70
27314;DHT22;14800;48.174;9.798;2024-01-06T14:08:55;7.40;84.80
27314;DHT22;14800;48.174;9.798;2024-01-06T14:11:21;7.40;85.30
27314;DHT22;14800;48.174;9.798;2024-01-06T14:13:47;7.40;85.50
27314;DHT22;14800;48.174;9.798;2024-01-06T14:16:20;7.40;85.40
27314;DHT22;14800;48.174;9.798;2024-01-06T14:18:46;7.40;85.60
27314;DHT22;14800;48.174;9.798;2024-01-06T14:21:12;7.40;85.70
27314;DHT22;14800;48.174;9.798;2024-01-06T14:23:41;7.40;85.70
27314;DHT22;14800;48.174;9.798;2024-01-06T14:26:07;7.40;85.40
27314;DHT22;14800;48.174;9.798;2024-01-06T14:28:32;7.40;85.30
27314;DHT22;14800;48.174;9.798;2024-01-06T14:30:58;7.40;85.20
27314;DHT22;14800;48.174;9.798;2024-01-06T14:33:24;7.30;85.00
27314;DHT22;14800;48.174;9.798;2024-01-06T14:35:49;7.30;85.00
27314;DHT22;14800;48.174;9.798;2024-01-06T14:38:15;7.30;85.00
27314;DHT22;14800;48.174;9.798;2024-01-06T14:40:40;7.30;85.30
27314;DHT22;14800;48.174;9.798;2024-01-06T14:43:06;7.20;85.20
27314;DHT22;14800;48.174;9.798;2024-01-06T14:45:32;7.30;85.60
27314;DHT22;14800;48.174;9.798;2024-01-06T14:47:57;7.20;86.00
27314;DHT22;14800;48.174;9.798;2024-01-06T14:50:23;7.20;86.10
27314;DHT22;14800;48.174;9.798;2024-01-06T14:52:49;7.20;86.20
27314;DHT22;14800;48.174;9.798;2024-01-06T14:55:15;7.20;86.40
27314;DHT22;14800;48.174;9.798;2024-01-06T14:57:41;7.30;86.70
27314;DHT22;14800;48.174;9.798;2024-01-06T15:00:07;7.30;86.80
27314;DHT22;14800;48.174;9.798;2024-01-06T15:02:38;7.30;86.80
27314;DHT22;14800;48.174;9.798;2024-01-06T15:05:05;7.30;86.70
27314;DHT22;14800;48.174;9.798;2024-01-06T15:07:31;7.30;86.70
27314;DHT22;14800;48.174;9.798;2024-01-06T15:09:58;7.40;86.60
27314;DHT22;14800;48.174;9.798;2024-01-06T15:12:24;7.40;86.70
27314;DHT22;14800;48.174;9.798;2024-01-06T15:14:50;7.30;86.60
27314;DHT22;14800;48.174;9.798;2024-01-06T15:17:15;7.40;86.80
27314;DHT22;14800;48.174;9.798;2024-01-06T15:19:44;7.30;86.70
27314;DHT22;14800;48.174;9.798;2024-01-06T15:22:10;7.40;86.80
27314;DHT22;14800;48.174;9.798;2024-01-06T15:24:36;7.40;86.90
27314;DHT22;14800;48.174;9.798;2024-01-06T15:27:02;7.40;86.90
27314;DHT22;14800;48.174;9.798;2024-01-06T15:29:27;7.40;87.80
27314;DHT22;14800;48.174;9.798;2024-01-06T15:31:53;7.40;86.90
27314;DHT22;14800;48.174;9.798;2024-01-06T15:34:23;7.40;87.00
27314;DHT22;14800;48.174;9.798;2024-01-06T15:36:48;7.40;86.90
27314;DHT22;14800;48.174;9.798;2024-01-06T15:39:14;7.30;87.00